sensor_id;sensor_type;location;lat;lon;timestamp;temperature;humidity
76567;DHT22;65428;53.194;6.132;2023-07-31T00:00:34;17.30;99.90
76567;DHT22;65428;53.194;6.132;2023-07-31T00:03:00;17.10;99.90
76567;DHT22;65428;53.194;6.132;2023-07-31T00:05:26;16.90;99.90
76567;DHT22;65428;53.194;6.132;2023-07-31T00:07:51;16.90;99.90
76567;DHT22;65428;53.194;6.132;2023-07-31T00:10:17;16.90;99.90
76567;DHT22;65428;53.194;6.132;2023-07-31T00:12:44;17.30;99.90
76567;DHT22;65428;53.194;6.132;2023-07-31T00:15:10;16.80;99.90
76567;DHT22;65428;53.194;6.132;2023-07-31T00:17:36;16.80;99.90
76567;DHT22;65428;53.194;6.132;2023-07-31T00:20:02;16.90;99.90
76567;DHT22;65428;53.194;6.132;2023-07-31T00:22:28;16.80;99.90
76567;DHT22;65428;53.194;6.132;2023-07-31T00:24:53;16.80;99.90
76567;DHT22;65428;53.194;6.132;2023-07-31T00:27:19;16.80;99.90
76567;DHT22;65428;53.194;6.132;2023-07-31T00:29:45;17.20;99.90
76567;DHT22;65428;53.194;6.132;2023-07-31T00:32:10;16.70;99.90
76567;DHT22;65428;53.194;6.132;2023-07-31T00:34:36;16.70;99.90
76567;DHT22;65428;53.194;6.132;2023-07-31T00:37:01;16.70;99.90
76567;DHT22;65428;53.194;6.132;2023-07-31T00:39:27;16.80;99.90
76567;DHT22;65428;53.194;6.132;2023-07-31T00:41:52;16.80;99.90
76567;DHT22;65428;53.194;6.132;2023-07-31T00:44:18;16.80;99.90
76567;DHT22;65428;53.194;6.132;2023-07-31T00:46:44;16.80;99.90
76567;DHT22;65428;53.194;6.132;2023-07-31T00:49:10;16.80;99.90
76567;DHT22;65428;53.194;6.132;2023-07-31T00:51:37;16.90;99.90
76567;DHT22;65428;53.194;6.132;2023-07-31T00:54:03;16.80;99.90
76567;DHT22;65428;53.194;6.132;2023-07-31T00:56:29;16.80;99.90
76567;DHT22;65428;53.194;6.132;2023-07-31T00:58:55;16.80;99.90
76567;DHT22;65428;53.194;6.132;2023-07-31T01:01:21;17.00;99.90
76567;DHT22;65428;53.194;6.132;2023-07-31T01:03:48;17.10;99.90
76567;DHT22;65428;53.194;6.132;2023-07-31T01:09:11;16.80;99.90
76567;DHT22;65428;53.194;6.132;2023-07-31T01:11:52;16.80;99.90
76567;DHT22;65428;53.194;6.132;2023-07-31T01:14:18;16.80;99.90
76567;DHT22;65428;53.194;6.132;2023-07-31T01:16:43;17.20;99.90
76567;DHT22;65428;53.194;6.132;2023-07-31T01:19:11;16.80;99.90
76567;DHT22;65428;53.194;6.132;2023-07-31T01:22:04;16.90;99.90
76567;DHT22;65428;53.194;6.132;2023-07-31T01:25:06;16.90;99.90
76567;DHT22;65428;53.194;6.132;2023-07-31T01:27:51;16.90;99.90
76567;DHT22;65428;53.194;6.132;2023-07-31T01:30:22;16.90;99.90
76567;DHT22;65428;53.194;6.132;2023-07-31T01:32:51;16.90;99.90
76567;DHT22;65428;53.194;6.132;2023-07-31T01:35:18;17.40;99.90
76567;DHT22;65428;53.194;6.132;2023-07-31T01:37:45;16.90;99.90
76567;DHT22;65428;53.194;6.132;2023-07-31T01:40:11;16.90;99.90
76567;DHT22;65428;53.194;6.132;2023-07-31T01:42:36;16.90;99.90
76567;DHT22;65428;53.194;6.132;2023-07-31T01:45:02;16.80;99.90
76567;DHT22;65428;53.194;6.132;2023-07-31T01:47:28;16.80;99.90
76567;DHT22;65428;53.194;6.132;2023-07-31T01:49:53;16.90;99.90
76567;DHT22;65428;53.194;6.132;2023-07-31T01:52:19;16.70;99.90
76567;DHT22;65428;53.194;6.132;2023-07-31T01:54:45;16.80;99.90
76567;DHT22;65428;53.194;6.132;2023-07-31T01:57:10;16.80;99.90
76567;DHT22;65428;53.194;6.132;2023-07-31T01:59:36;16.80;99.90
76567;DHT22;65428;53.194;6.132;2023-07-31T02:02:01;17.20;99.90
76567;DHT22;65428;53.194;6.132;2023-07-31T02:04:27;17.00;99.90
76567;DHT22;65428;53.194;6.132;2023-07-31T02:06:53;16.70;99.90
76567;DHT22;65428;53.194;6.132;2023-07-31T02:09:18;16.80;99.90
76567;DHT22;65428;53.194;6.132;2023-07-31T02:11:44;17.10;99.90
76567;DHT22;65428;53.194;6.132;2023-07-31T02:14:09;16.80;99.90
76567;DHT22;65428;53.194;6.132;2023-07-31T02:16:35;17.00;99.90
76567;DHT22;65428;53.194;6.132;2023-07-31T02:19:01;16.70;99.90
76567;DHT22;65428;53.194;6.132;2023-07-31T02:21:26;16.70;99.90
76567;DHT22;65428;53.194;6.132;2023-07-31T02:23:52;16.70;99.90
76567;DHT22;65428;53.194;6.132;2023-07-31T02:26:18;16.70;99.90
76567;DHT22;65428;53.194;6.132;2023-07-31T02:28:43;16.90;99.90
76567;DHT22;65428;53.194;6.132;2023-07-31T02:31:09;16.70;99.90
76567;DHT22;65428;53.194;6.132;2023-07-31T02:33:35;16.60;99.90
76567;DHT22;65428;53.194;6.132;2023-07-31T02:36:00;16.80;99.90
76567;DHT22;65428;53.194;6.132;2023-07-31T02:38:26;16.80;99.90
76567;DHT22;65428;53.194;6.132;2023-07-31T02:40:52;17.40;99.90
76567;DHT22;65428;53.194;6.132;2023-07-31T02:43:17;16.60;99.90
76567;DHT22;65428;53.194;6.132;2023-07-31T02:45:43;16.50;99.90
76567;DHT22;65428;53.194;6.132;2023-07-31T02:48:09;16.80;99.90
76567;DHT22;65428;53.194;6.132;2023-07-31T02:50:34;16.70;99.90
76567;DHT22;65428;53.194;6.132;2023-07-31T02:53:00;16.60;99.90
76567;DHT22;65428;53.194;6.132;2023-07-31T02:55:26;16.90;99.90
76567;DHT22;65428;53.194;6.132;2023-07-31T02:57:51;16.80;99.90
76567;DHT22;65428;53.194;6.132;2023-07-31T03:00:18;16.80;99.90
76567;DHT22;65428;53.194;6.132;2023-07-31T03:02:43;16.60;99.90
76567;DHT22;65428;53.194;6.132;2023-07-31T03:05:09;16.50;99.90
76567;DHT22;65428;53.194;6.132;2023-07-31T03:07:34;16.60;99.90
76567;DHT22;65428;53.194;6.132;2023-07-31T03:10:00;16.60;99.90
76567;DHT22;65428;53.194;6.132;2023-07-31T03:12:27;16.60;99.90
76567;DHT22;65428;53.194;6.132;2023-07-31T03:14:53;16.60;99.90
76567;DHT22;65428;53.194;6.132;2023-07-31T03:17:18;16.60;99.90
76567;DHT22;65428;53.194;6.132;2023-07-31T03:19:44;16.80;99.90
76567;DHT22;65428;53.194;6.132;2023-07-31T03:22:10;16.60;99.90
76567;DHT22;65428;53.194;6.132;2023-07-31T03:24:35;16.90;99.90
76567;DHT22;65428;53.194;6.132;2023-07-31T03:27:01;16.80;99.90
76567;DHT22;65428;53.194;6.132;2023-07-31T03:29:27;16.50;99.90
76567;DHT22;65428;53.194;6.132;2023-07-31T03:31:52;16.70;99.90
76567;DHT22;65428;53.194;6.132;2023-07-31T03:34:18;16.70;99.90
76567;DHT22;65428;53.194;6.132;2023-07-31T03:36:44;16.60;99.90
76567;DHT22;65428;53.194;6.132;2023-07-31T03:39:10;16.80;99.90
76567;DHT22;65428;53.194;6.132;2023-07-31T03:41:35;16.80;99.90
76567;DHT22;65428;53.194;6.132;2023-07-31T03:44:01;16.80;99.90
76567;DHT22;65428;53.194;6.132;2023-07-31T03:46:27;16.30;99.90
76567;DHT22;65428;53.194;6.132;2023-07-31T03:48:52;16.80;99.90
76567;DHT22;65428;53.194;6.132;2023-07-31T03:51:18;16.90;99.90
76567;DHT22;65428;53.194;6.132;2023-07-31T03:53:44;16.50;99.90
76567;DHT22;65428;53.194;6.132;2023-07-31T03:56:10;16.80;99.90
76567;DHT22;65428;53.194;6.132;2023-07-31T03:58:36;16.70;99.90
76567;DHT22;65428;53.194;6.132;2023-07-31T04:01:03;16.80;99.90
76567;DHT22;65428;53.194;6.132;2023-07-31T04:03:29;16.60;99.90
76567;DHT22;65428;53.194;6.132;2023-07-31T04:05:55;16.80;99.90
76567;DHT22;65428;53.194;6.132;2023-07-31T04:08:23;16.60;99.90
76567;DHT22;65428;53.194;6.132;2023-07-31T04:10:49;16.60;99.90
76567;DHT22;65428;53.194;6.132;2023-07-31T04:13:15;16.80;99.90
76567;DHT22;65428;53.194;6.132;2023-07-31T04:15:41;16.80;99.90
76567;DHT22;65428;53.194;6.132;2023-07-31T04:18:06;16.90;99.90
76567;DHT22;65428;53.194;6.132;2023-07-31T04:20:32;16.40;99.90
76567;DHT22;65428;53.194;6.132;2023-07-31T04:22:58;16.50;99.90
76567;DHT22;65428;53.194;6.132;2023-07-31T04:25:24;17.10;99.90
76567;DHT22;65428;53.194;6.132;2023-07-31T04:27:49;16.60;99.90
76567;DHT22;65428;53.194;6.132;2023-07-31T04:30:15;16.60;99.90
76567;DHT22;65428;53.194;6.132;2023-07-31T04:32:41;17.10;99.90
76567;DHT22;65428;53.194;6.132;2023-07-31T04:35:06;17.10;99.90
76567;DHT22;65428;53.194;6.132;2023-07-31T04:37:32;16.60;99.90
76567;DHT22;65428;53.194;6.132;2023-07-31T04:39:58;16.80;99.90
76567;DHT22;65428;53.194;6.132;2023-07-31T04:42:24;16.60;99.90
76567;DHT22;65428;53.194;6.132;2023-07-31T04:44:49;17.00;99.90
76567;DHT22;65428;53.194;6.132;2023-07-31T04:47:15;16.70;99.90
76567;DHT22;65428;53.194;6.132;2023-07-31T04:49:41;16.60;99.90
76567;DHT22;65428;53.194;6.132;2023-07-31T04:52:06;16.40;99.90
76567;DHT22;65428;53.194;6.132;2023-07-31T04:54:32;16.50;99.90
76567;DHT22;65428;53.194;6.132;2023-07-31T04:56:58;16.80;99.90
76567;DHT22;65428;53.194;6.132;2023-07-31T04:59:24;16.70;99.90
76567;DHT22;65428;53.194;6.132;2023-07-31T05:01:50;16.40;99.90
76567;DHT22;65428;53.194;6.132;2023-07-31T05:04:15;16.70;99.90
76567;DHT22;65428;53.194;6.132;2023-07-31T05:06:41;16.60;99.90
76567;DHT22;65428;53.194;6.132;2023-07-31T05:09:07;16.70;99.90
76567;DHT22;65428;53.194;6.132;2023-07-31T05:11:35;16.80;99.90
76567;DHT22;65428;53.194;6.132;2023-07-31T05:14:00;16.40;99.90
76567;DHT22;65428;53.194;6.132;2023-07-31T05:16:26;16.40;99.90
76567;DHT22;65428;53.194;6.132;2023-07-31T05:18:52;16.60;99.90
76567;DHT22;65428;53.194;6.132;2023-07-31T05:21:17;16.60;99.90
76567;DHT22;65428;53.194;6.132;2023-07-31T05:28:57;16.40;99.90
76567;DHT22;65428;53.194;6.132;2023-07-31T05:31:24;16.60;99.90
76567;DHT22;65428;53.194;6.132;2023-07-31T05:33:50;16.80;99.90
76567;DHT22;65428;53.194;6.132;2023-07-31T05:36:17;16.40;99.90
76567;DHT22;65428;53.194;6.132;2023-07-31T05:38:43;16.50;99.90
76567;DHT22;65428;53.194;6.132;2023-07-31T05:41:11;16.50;99.90
76567;DHT22;65428;53.194;6.132;2023-07-31T05:43:37;16.40;99.90
76567;DHT22;65428;53.194;6.132;2023-07-31T05:46:03;16.80;99.90
76567;DHT22;65428;53.194;6.132;2023-07-31T05:48:29;16.70;99.90
76567;DHT22;65428;53.194;6.132;2023-07-31T05:50:54;16.80;99.90
76567;DHT22;65428;53.194;6.132;2023-07-31T05:53:20;16.80;99.90
76567;DHT22;65428;53.194;6.132;2023-07-31T05:55:45;16.90;99.90
76567;DHT22;65428;53.194;6.132;2023-07-31T05:58:11;17.00;99.90
76567;DHT22;65428;53.194;6.132;2023-07-31T06:00:37;16.80;99.90
76567;DHT22;65428;53.194;6.132;2023-07-31T06:03:02;16.80;99.90
76567;DHT22;65428;53.194;6.132;2023-07-31T06:05:28;16.90;99.90
76567;DHT22;65428;53.194;6.132;2023-07-31T06:07:55;17.00;99.90
76567;DHT22;65428;53.194;6.132;2023-07-31T06:10:21;16.60;99.90
76567;DHT22;65428;53.194;6.132;2023-07-31T06:12:47;16.70;99.90
76567;DHT22;65428;53.194;6.132;2023-07-31T06:15:13;16.70;99.90
76567;DHT22;65428;53.194;6.132;2023-07-31T06:17:38;17.10;99.90
76567;DHT22;65428;53.194;6.132;2023-07-31T06:20:06;16.70;99.90
76567;DHT22;65428;53.194;6.132;2023-07-31T06:22:32;16.80;99.90
76567;DHT22;65428;53.194;6.132;2023-07-31T06:24:58;16.90;99.90
76567;DHT22;65428;53.194;6.132;2023-07-31T06:27:24;16.90;99.90
76567;DHT22;65428;53.194;6.132;2023-07-31T06:29:49;17.00;99.90
76567;DHT22;65428;53.194;6.132;2023-07-31T06:32:15;17.00;99.90
76567;DHT22;65428;53.194;6.132;2023-07-31T06:34:41;17.10;99.90
76567;DHT22;65428;53.194;6.132;2023-07-31T06:37:06;17.30;99.90
76567;DHT22;65428;53.194;6.132;2023-07-31T06:39:32;17.30;99.90
76567;DHT22;65428;53.194;6.132;2023-07-31T06:41:57;18.10;99.90
76567;DHT22;65428;53.194;6.132;2023-07-31T06:44:23;17.80;99.90
76567;DHT22;65428;53.194;6.132;2023-07-31T06:46:49;17.90;99.90
76567;DHT22;65428;53.194;6.132;2023-07-31T06:49:14;17.90;99.90
76567;DHT22;65428;53.194;6.132;2023-07-31T06:51:41;17.70;99.90
76567;DHT22;65428;53.194;6.132;2023-07-31T06:54:08;17.50;99.90
76567;DHT22;65428;53.194;6.132;2023-07-31T06:56:34;17.50;99.90
76567;DHT22;65428;53.194;6.132;2023-07-31T06:58:59;17.40;99.90
76567;DHT22;65428;53.194;6.132;2023-07-31T07:01:25;17.50;99.90
76567;DHT22;65428;53.194;6.132;2023-07-31T07:03:51;17.40;99.90
76567;DHT22;65428;53.194;6.132;2023-07-31T07:06:20;17.70;99.90
76567;DHT22;65428;53.194;6.132;2023-07-31T07:08:45;17.30;99.90
76567;DHT22;65428;53.194;6.132;2023-07-31T07:11:11;17.40;99.90
76567;DHT22;65428;53.194;6.132;2023-07-31T07:13:37;17.70;99.90
76567;DHT22;65428;53.194;6.132;2023-07-31T07:16:02;17.80;99.90
76567;DHT22;65428;53.194;6.132;2023-07-31T07:18:28;17.60;99.90
76567;DHT22;65428;53.194;6.132;2023-07-31T07:20:54;17.90;99.90
76567;DHT22;65428;53.194;6.132;2023-07-31T07:23:20;17.80;99.90
76567;DHT22;65428;53.194;6.132;2023-07-31T07:25:47;18.20;99.90
76567;DHT22;65428;53.194;6.132;2023-07-31T07:28:13;17.90;99.90
76567;DHT22;65428;53.194;6.132;2023-07-31T07:30:39;17.90;99.90
76567;DHT22;65428;53.194;6.132;2023-07-31T07:33:05;17.80;99.90
76567;DHT22;65428;53.194;6.132;2023-07-31T07:35:35;18.20;99.90
76567;DHT22;65428;53.194;6.132;2023-07-31T07:38:02;18.20;99.90
76567;DHT22;65428;53.194;6.132;2023-07-31T07:40:28;18.30;99.90
76567;DHT22;65428;53.194;6.132;2023-07-31T07:42:53;18.10;99.90
76567;DHT22;65428;53.194;6.132;2023-07-31T07:45:19;18.10;99.90
76567;DHT22;65428;53.194;6.132;2023-07-31T07:47:47;18.30;99.90
76567;DHT22;65428;53.194;6.132;2023-07-31T07:50:12;18.10;99.90
76567;DHT22;65428;53.194;6.132;2023-07-31T07:52:38;17.90;99.90
76567;DHT22;65428;53.194;6.132;2023-07-31T07:55:04;17.90;99.90
76567;DHT22;65428;53.194;6.132;2023-07-31T07:57:30;17.90;99.90
76567;DHT22;65428;53.194;6.132;2023-07-31T07:59:55;17.90;99.90
76567;DHT22;65428;53.194;6.132;2023-07-31T08:02:22;18.20;99.90
76567;DHT22;65428;53.194;6.132;2023-07-31T08:04:47;17.90;99.90
76567;DHT22;65428;53.194;6.132;2023-07-31T08:07:14;18.00;99.90
76567;DHT22;65428;53.194;6.132;2023-07-31T08:09:39;18.10;99.90
76567;DHT22;65428;53.194;6.132;2023-07-31T08:12:06;18.30;99.90
76567;DHT22;65428;53.194;6.132;2023-07-31T08:14:32;18.00;99.90
76567;DHT22;65428;53.194;6.132;2023-07-31T08:16:57;18.10;99.90
76567;DHT22;65428;53.194;6.132;2023-07-31T08:19:23;18.20;99.90
76567;DHT22;65428;53.194;6.132;2023-07-31T08:21:49;18.20;99.90
76567;DHT22;65428;53.194;6.132;2023-07-31T08:24:15;18.00;99.90
76567;DHT22;65428;53.194;6.132;2023-07-31T08:26:40;18.40;99.90
76567;DHT22;65428;53.194;6.132;2023-07-31T08:29:06;18.20;99.90
76567;DHT22;65428;53.194;6.132;2023-07-31T08:31:32;18.50;99.90
76567;DHT22;65428;53.194;6.132;2023-07-31T08:33:57;18.40;99.90
76567;DHT22;65428;53.194;6.132;2023-07-31T08:36:23;18.60;99.90
76567;DHT22;65428;53.194;6.132;2023-07-31T08:38:49;18.60;99.90
76567;DHT22;65428;53.194;6.132;2023-07-31T08:41:15;18.70;99.90
76567;DHT22;65428;53.194;6.132;2023-07-31T08:43:45;18.50;99.90
76567;DHT22;65428;53.194;6.132;2023-07-31T08:46:11;18.50;99.90
76567;DHT22;65428;53.194;6.132;2023-07-31T08:48:41;18.80;99.90
76567;DHT22;65428;53.194;6.132;2023-07-31T08:51:07;18.50;99.90
76567;DHT22;65428;53.194;6.132;2023-07-31T08:53:33;18.70;99.90
76567;DHT22;65428;53.194;6.132;2023-07-31T08:55:59;18.40;99.90
76567;DHT22;65428;53.194;6.132;2023-07-31T08:58:28;18.40;99.90
76567;DHT22;65428;53.194;6.132;2023-07-31T09:00:55;18.80;99.90
76567;DHT22;65428;53.194;6.132;2023-07-31T09:03:23;18.90;99.90
76567;DHT22;65428;53.194;6.132;2023-07-31T09:05:50;18.80;99.90
76567;DHT22;65428;53.194;6.132;2023-07-31T09:08:19;18.90;99.90
76567;DHT22;65428;53.194;6.132;2023-07-31T09:10:46;19.00;99.90
76567;DHT22;65428;53.194;6.132;2023-07-31T09:13:16;19.30;99.90
76567;DHT22;65428;53.194;6.132;2023-07-31T09:15:44;19.30;99.90
76567;DHT22;65428;53.194;6.132;2023-07-31T09:18:10;19.50;99.90
76567;DHT22;65428;53.194;6.132;2023-07-31T09:20:36;19.60;99.90
76567;DHT22;65428;53.194;6.132;2023-07-31T09:23:13;19.30;99.90
76567;DHT22;65428;53.194;6.132;2023-07-31T09:25:43;19.40;99.90
76567;DHT22;65428;53.194;6.132;2023-07-31T09:28:10;19.70;99.90
76567;DHT22;65428;53.194;6.132;2023-07-31T09:30:50;19.60;99.90
76567;DHT22;65428;53.194;6.132;2023-07-31T09:33:16;19.50;99.90
76567;DHT22;65428;53.194;6.132;2023-07-31T09:35:42;19.50;99.90
76567;DHT22;65428;53.194;6.132;2023-07-31T09:38:13;19.80;99.90
76567;DHT22;65428;53.194;6.132;2023-07-31T09:40:41;19.40;99.90
76567;DHT22;65428;53.194;6.132;2023-07-31T09:43:09;19.40;99.90
76567;DHT22;65428;53.194;6.132;2023-07-31T09:45:40;19.30;99.90
76567;DHT22;65428;53.194;6.132;2023-07-31T09:48:11;19.70;99.90
76567;DHT22;65428;53.194;6.132;2023-07-31T09:50:42;19.20;99.90
76567;DHT22;65428;53.194;6.132;2023-07-31T09:53:09;19.10;99.90
76567;DHT22;65428;53.194;6.132;2023-07-31T09:55:36;19.10;99.90
76567;DHT22;65428;53.194;6.132;2023-07-31T09:58:12;19.40;99.90
76567;DHT22;65428;53.194;6.132;2023-07-31T10:00:39;19.10;99.90
76567;DHT22;65428;53.194;6.132;2023-07-31T10:03:07;19.50;99.90
76567;DHT22;65428;53.194;6.132;2023-07-31T10:05:45;19.30;99.90
76567;DHT22;65428;53.194;6.132;2023-07-31T10:08:14;19.60;99.90
76567;DHT22;65428;53.194;6.132;2023-07-31T10:10:45;19.30;99.90
76567;DHT22;65428;53.194;6.132;2023-07-31T10:13:14;19.70;99.90
76567;DHT22;65428;53.194;6.132;2023-07-31T10:15:41;19.10;99.90
76567;DHT22;65428;53.194;6.132;2023-07-31T10:18:09;19.00;99.90
76567;DHT22;65428;53.194;6.132;2023-07-31T10:20:35;19.30;99.90
76567;DHT22;65428;53.194;6.132;2023-07-31T10:23:02;19.00;99.90
76567;DHT22;65428;53.194;6.132;2023-07-31T10:25:29;19.00;99.90
76567;DHT22;65428;53.194;6.132;2023-07-31T10:27:57;19.40;99.90
76567;DHT22;65428;53.194;6.132;2023-07-31T10:30:27;19.20;99.90
76567;DHT22;65428;53.194;6.132;2023-07-31T10:32:56;19.30;99.90
76567;DHT22;65428;53.194;6.132;2023-07-31T10:35:23;19.60;99.90
76567;DHT22;65428;53.194;6.132;2023-07-31T10:37:48;19.90;99.90
76567;DHT22;65428;53.194;6.132;2023-07-31T10:40:18;20.10;99.90
76567;DHT22;65428;53.194;6.132;2023-07-31T10:42:53;20.10;99.90
76567;DHT22;65428;53.194;6.132;2023-07-31T10:45:39;20.00;99.90
76567;DHT22;65428;53.194;6.132;2023-07-31T10:48:13;19.90;99.90
76567;DHT22;65428;53.194;6.132;2023-07-31T10:50:49;19.80;99.90
76567;DHT22;65428;53.194;6.132;2023-07-31T10:53:31;19.80;99.90
76567;DHT22;65428;53.194;6.132;2023-07-31T10:56:09;19.70;99.90
76567;DHT22;65428;53.194;6.132;2023-07-31T10:58:36;19.60;99.90
76567;DHT22;65428;53.194;6.132;2023-07-31T11:01:04;19.60;99.90
76567;DHT22;65428;53.194;6.132;2023-07-31T11:03:50;19.50;99.90
76567;DHT22;65428;53.194;6.132;2023-07-31T11:06:29;19.40;99.90
76567;DHT22;65428;53.194;6.132;2023-07-31T11:08:55;19.20;99.90
76567;DHT22;65428;53.194;6.132;2023-07-31T11:11:21;19.10;99.90
76567;DHT22;65428;53.194;6.132;2023-07-31T11:13:49;19.50;99.90
76567;DHT22;65428;53.194;6.132;2023-07-31T11:16:16;19.10;99.90
76567;DHT22;65428;53.194;6.132;2023-07-31T11:18:43;19.40;99.90
76567;DHT22;65428;53.194;6.132;2023-07-31T11:21:14;19.30;99.90
76567;DHT22;65428;53.194;6.132;2023-07-31T11:23:40;19.40;99.90
76567;DHT22;65428;53.194;6.132;2023-07-31T11:26:07;19.20;99.90
76567;DHT22;65428;53.194;6.132;2023-07-31T11:28:34;19.40;99.90
76567;DHT22;65428;53.194;6.132;2023-07-31T11:31:01;19.80;99.90
76567;DHT22;65428;53.194;6.132;2023-07-31T11:33:27;19.60;99.90
76567;DHT22;65428;53.194;6.132;2023-07-31T11:36:00;19.50;99.90
76567;DHT22;65428;53.194;6.132;2023-07-31T11:38:31;19.50;99.90
76567;DHT22;65428;53.194;6.132;2023-07-31T11:41:04;19.40;99.90
76567;DHT22;65428;53.194;6.132;2023-07-31T11:43:31;19.80;99.90
76567;DHT22;65428;53.194;6.132;2023-07-31T11:46:04;19.60;99.90
76567;DHT22;65428;53.194;6.132;2023-07-31T11:48:49;19.20;99.90
76567;DHT22;65428;53.194;6.132;2023-07-31T11:51:18;19.20;99.90
76567;DHT22;65428;53.194;6.132;2023-07-31T11:53:50;19.20;99.90
76567;DHT22;65428;53.194;6.132;2023-07-31T11:56:20;19.30;99.90
76567;DHT22;65428;53.194;6.132;2023-07-31T11:58:48;19.30;99.90
76567;DHT22;65428;53.194;6.132;2023-07-31T12:01:15;19.30;99.90
76567;DHT22;65428;53.194;6.132;2023-07-31T12:03:45;19.40;99.90
76567;DHT22;65428;53.194;6.132;2023-07-31T12:06:11;19.40;99.90
76567;DHT22;65428;53.194;6.132;2023-07-31T12:08:37;19.60;99.90
76567;DHT22;65428;53.194;6.132;2023-07-31T12:11:08;20.00;99.90
76567;DHT22;65428;53.194;6.132;2023-07-31T12:13:35;20.00;99.90
76567;DHT22;65428;53.194;6.132;2023-07-31T12:16:04;20.00;99.90
76567;DHT22;65428;53.194;6.132;2023-07-31T12:18:34;20.00;99.90
76567;DHT22;65428;53.194;6.132;2023-07-31T12:21:05;20.00;99.90
76567;DHT22;65428;53.194;6.132;2023-07-31T12:23:37;20.00;99.90
76567;DHT22;65428;53.194;6.132;2023-07-31T12:28:49;20.10;99.90
76567;DHT22;65428;53.194;6.132;2023-07-31T12:31:17;20.10;99.90
76567;DHT22;65428;53.194;6.132;2023-07-31T12:33:44;19.80;99.90
76567;DHT22;65428;53.194;6.132;2023-07-31T12:36:15;20.00;99.90
76567;DHT22;65428;53.194;6.132;2023-07-31T12:38:42;20.20;99.90
76567;DHT22;65428;53.194;6.132;2023-07-31T12:41:08;20.20;99.90
76567;DHT22;65428;53.194;6.132;2023-07-31T12:43:38;20.10;99.90
76567;DHT22;65428;53.194;6.132;2023-07-31T12:46:05;19.80;99.90
76567;DHT22;65428;53.194;6.132;2023-07-31T12:48:33;19.90;99.90
76567;DHT22;65428;53.194;6.132;2023-07-31T12:50:58;19.90;99.90
76567;DHT22;65428;53.194;6.132;2023-07-31T12:53:24;20.00;99.90
76567;DHT22;65428;53.194;6.132;2023-07-31T12:55:50;19.80;99.90
76567;DHT22;65428;53.194;6.132;2023-07-31T12:58:16;20.10;99.90
76567;DHT22;65428;53.194;6.132;2023-07-31T13:00:41;19.80;99.90
76567;DHT22;65428;53.194;6.132;2023-07-31T13:03:08;19.90;99.90
76567;DHT22;65428;53.194;6.132;2023-07-31T13:05:33;20.20;99.90
76567;DHT22;65428;53.194;6.132;2023-07-31T13:07:59;20.10;99.90
76567;DHT22;65428;53.194;6.132;2023-07-31T13:10:24;20.00;99.90
76567;DHT22;65428;53.194;6.132;2023-07-31T13:12:52;20.00;99.90
76567;DHT22;65428;53.194;6.132;2023-07-31T13:15:18;20.10;99.90
76567;DHT22;65428;53.194;6.132;2023-07-31T13:17:45;20.20;99.90
76567;DHT22;65428;53.194;6.132;2023-07-31T13:20:11;20.30;99.90
76567;DHT22;65428;53.194;6.132;2023-07-31T13:22:37;20.70;99.90
76567;DHT22;65428;53.194;6.132;2023-07-31T13:25:02;20.80;99.90
76567;DHT22;65428;53.194;6.132;2023-07-31T13:27:28;20.60;99.90
76567;DHT22;65428;53.194;6.132;2023-07-31T13:29:54;20.90;99.90
76567;DHT22;65428;53.194;6.132;2023-07-31T13:32:21;21.00;99.90
76567;DHT22;65428;53.194;6.132;2023-07-31T13:34:49;21.00;99.90
76567;DHT22;65428;53.194;6.132;2023-07-31T13:37:15;21.10;99.90
76567;DHT22;65428;53.194;6.132;2023-07-31T13:39:42;21.10;99.90
76567;DHT22;65428;53.194;6.132;2023-07-31T13:42:08;21.20;99.90
76567;DHT22;65428;53.194;6.132;2023-07-31T13:44:35;21.30;99.90
76567;DHT22;65428;53.194;6.132;2023-07-31T13:47:01;21.50;99.90
76567;DHT22;65428;53.194;6.132;2023-07-31T13:49:27;21.60;99.90
76567;DHT22;65428;53.194;6.132;2023-07-31T13:51:52;21.50;99.90
76567;DHT22;65428;53.194;6.132;2023-07-31T13:54:18;21.40;99.90
76567;DHT22;65428;53.194;6.132;2023-07-31T13:56:44;21.50;99.90
76567;DHT22;65428;53.194;6.132;2023-07-31T13:59:10;21.40;99.90
76567;DHT22;65428;53.194;6.132;2023-07-31T14:01:36;21.30;99.90
76567;DHT22;65428;53.194;6.132;2023-07-31T14:04:01;21.30;99.90
76567;DHT22;65428;53.194;6.132;2023-07-31T14:06:27;21.10;99.90
76567;DHT22;65428;53.194;6.132;2023-07-31T14:08:53;21.10;99.90
76567;DHT22;65428;53.194;6.132;2023-07-31T14:11:19;21.00;99.90
76567;DHT22;65428;53.194;6.132;2023-07-31T14:13:44;21.00;99.90
76567;DHT22;65428;53.194;6.132;2023-07-31T14:16:10;20.90;99.90
76567;DHT22;65428;53.194;6.132;2023-07-31T14:18:36;21.30;99.90
76567;DHT22;65428;53.194;6.132;2023-07-31T14:21:01;21.00;99.90
76567;DHT22;65428;53.194;6.132;2023-07-31T14:23:27;21.10;99.90
76567;DHT22;65428;53.194;6.132;2023-07-31T14:25:52;21.20;99.90
76567;DHT22;65428;53.194;6.132;2023-07-31T14:28:18;21.20;99.90
76567;DHT22;65428;53.194;6.132;2023-07-31T14:30:43;21.00;99.90
76567;DHT22;65428;53.194;6.132;2023-07-31T14:33:09;20.90;99.90
76567;DHT22;65428;53.194;6.132;2023-07-31T14:35:35;20.80;99.90
76567;DHT22;65428;53.194;6.132;2023-07-31T14:38:01;20.70;99.90
76567;DHT22;65428;53.194;6.132;2023-07-31T14:40:26;21.00;99.90
76567;DHT22;65428;53.194;6.132;2023-07-31T14:42:52;20.60;99.90
76567;DHT22;65428;53.194;6.132;2023-07-31T14:45:18;20.20;99.90
76567;DHT22;65428;53.194;6.132;2023-07-31T14:47:44;20.20;99.90
76567;DHT22;65428;53.194;6.132;2023-07-31T14:50:10;19.60;99.90
76567;DHT22;65428;53.194;6.132;2023-07-31T14:52:35;19.20;99.90
76567;DHT22;65428;53.194;6.132;2023-07-31T14:55:01;19.10;99.90
76567;DHT22;65428;53.194;6.132;2023-07-31T14:57:29;18.90;99.90
76567;DHT22;65428;53.194;6.132;2023-07-31T14:59:54;19.10;99.90
76567;DHT22;65428;53.194;6.132;2023-07-31T15:02:20;18.90;99.90
76567;DHT22;65428;53.194;6.132;2023-07-31T15:04:46;18.80;99.90
76567;DHT22;65428;53.194;6.132;2023-07-31T15:07:11;18.90;99.90
76567;DHT22;65428;53.194;6.132;2023-07-31T15:09:39;18.80;99.90
76567;DHT22;65428;53.194;6.132;2023-07-31T15:12:05;19.00;99.90
76567;DHT22;65428;53.194;6.132;2023-07-31T15:14:31;18.90;99.90
76567;DHT22;65428;53.194;6.132;2023-07-31T15:16:57;18.90;99.90
76567;DHT22;65428;53.194;6.132;2023-07-31T15:19:23;18.90;99.90
76567;DHT22;65428;53.194;6.132;2023-07-31T15:21:49;18.90;99.90
76567;DHT22;65428;53.194;6.132;2023-07-31T15:24:15;18.90;99.90
76567;DHT22;65428;53.194;6.132;2023-07-31T15:26:41;19.10;99.90
76567;DHT22;65428;53.194;6.132;2023-07-31T15:29:08;19.00;99.90
76567;DHT22;65428;53.194;6.132;2023-07-31T15:31:43;18.90;99.90
76567;DHT22;65428;53.194;6.132;2023-07-31T15:34:09;19.00;99.90
76567;DHT22;65428;53.194;6.132;2023-07-31T15:36:34;19.10;99.90
76567;DHT22;65428;53.194;6.132;2023-07-31T15:39:00;19.00;99.90